FZAA/FIH METAR and TAF weather

Enter ICAO airport designator
Station Type Date Time Source
FZAA METAR 2022/11/27 08:00 UTC NOAA

FZAA 270800Z 25006KT 6000 SCT016 BKN080 26/22 Q1013 NOSIG


Station Type Date Time Source
FZAA Decoded METAR 2022/11/27 08:00 UTC NOAA

Kinshasa / N'Djili, Congo, Democratic Republic of the (FZAA) 04-23S 015-26E 312M
Nov 27, 2022 - 03:00 AM EST / 2022.11.27 0800 UTC
Wind: from the WSW (250 degrees) at 7 MPH (6 KT):0
Visibility: 3 mile(s):0
Sky conditions: mostly cloudy
Temperature: 78 F (26 C)
Dew Point: 71 F (22 C)
Relative Humidity: 78%
Pressure (altimeter): 29.91 in. Hg (1013 hPa)
ob: FZAA 270800Z 25006KT 6000 SCT016 BKN080 26/22 Q1013 NOSIG
cycle: 8

Station Type Date Time Source
FZAA TAF 2022/11/27 06:33 UTC NOAA

TAF FZAA 270500Z 2706/2812 20004KT 8000 SCT016 PROB30
TEMPO 2707/2711 4500 TSRA BKN014 FEW026CB
BECMG 2712/2714 34010KT SCT022 FEW030CB
TEMPO 2715/2719 -TSRA
BECMG 2721/2723 18004KT BKN016

Example: see airport list